sensor_id;sensor_type;location;lat;lon;timestamp;temperature;humidity
30694;DHT22;17446;48.022;-1.740;2023-02-23T00:01:37;6.50;99.90
30694;DHT22;17446;48.022;-1.740;2023-02-23T00:04:04;6.50;99.90
30694;DHT22;17446;48.022;-1.740;2023-02-23T00:06:31;6.40;99.90
30694;DHT22;17446;48.022;-1.740;2023-02-23T00:08:57;6.40;99.90
30694;DHT22;17446;48.022;-1.740;2023-02-23T00:11:26;6.40;99.90
30694;DHT22;17446;48.022;-1.740;2023-02-23T00:13:53;6.40;99.90
30694;DHT22;17446;48.022;-1.740;2023-02-23T00:16:23;6.40;99.90
30694;DHT22;17446;48.022;-1.740;2023-02-23T00:18:52;6.30;99.90
30694;DHT22;17446;48.022;-1.740;2023-02-23T00:21:24;6.30;99.90
30694;DHT22;17446;48.022;-1.740;2023-02-23T00:26:21;6.20;99.90
30694;DHT22;17446;48.022;-1.740;2023-02-23T00:28:52;6.20;99.90
30694;DHT22;17446;48.022;-1.740;2023-02-23T00:31:18;6.20;99.90
30694;DHT22;17446;48.022;-1.740;2023-02-23T00:33:50;6.10;99.90
30694;DHT22;17446;48.022;-1.740;2023-02-23T00:36:18;6.10;99.90
30694;DHT22;17446;48.022;-1.740;2023-02-23T00:38:44;6.10;99.90
30694;DHT22;17446;48.022;-1.740;2023-02-23T00:41:14;6.00;99.90
30694;DHT22;17446;48.022;-1.740;2023-02-23T00:43:48;6.00;99.90
30694;DHT22;17446;48.022;-1.740;2023-02-23T00:46:18;5.90;99.90
30694;DHT22;17446;48.022;-1.740;2023-02-23T00:48:46;5.90;99.90
30694;DHT22;17446;48.022;-1.740;2023-02-23T00:51:13;5.90;99.90
30694;DHT22;17446;48.022;-1.740;2023-02-23T00:53:40;5.80;99.90
30694;DHT22;17446;48.022;-1.740;2023-02-23T00:56:09;5.80;99.90
30694;DHT22;17446;48.022;-1.740;2023-02-23T00:58:34;5.70;99.90
30694;DHT22;17446;48.022;-1.740;2023-02-23T01:01:00;5.70;99.90
30694;DHT22;17446;48.022;-1.740;2023-02-23T01:03:28;5.60;99.90
30694;DHT22;17446;48.022;-1.740;2023-02-23T01:05:58;5.60;99.90
30694;DHT22;17446;48.022;-1.740;2023-02-23T01:08:24;5.60;99.90
30694;DHT22;17446;48.022;-1.740;2023-02-23T01:10:50;5.60;99.90
30694;DHT22;17446;48.022;-1.740;2023-02-23T01:13:19;5.50;99.90
30694;DHT22;17446;48.022;-1.740;2023-02-23T01:15:46;5.50;99.90
30694;DHT22;17446;48.022;-1.740;2023-02-23T01:18:18;5.50;99.90
30694;DHT22;17446;48.022;-1.740;2023-02-23T01:20:44;5.50;99.90
30694;DHT22;17446;48.022;-1.740;2023-02-23T01:23:11;5.40;99.90
30694;DHT22;17446;48.022;-1.740;2023-02-23T01:25:39;5.40;99.90
30694;DHT22;17446;48.022;-1.740;2023-02-23T01:28:05;5.40;99.90
30694;DHT22;17446;48.022;-1.740;2023-02-23T01:30:30;5.40;99.90
30694;DHT22;17446;48.022;-1.740;2023-02-23T01:32:56;5.30;99.90
30694;DHT22;17446;48.022;-1.740;2023-02-23T01:35:22;5.30;99.90
30694;DHT22;17446;48.022;-1.740;2023-02-23T01:37:48;5.30;99.90
30694;DHT22;17446;48.022;-1.740;2023-02-23T01:42:53;5.20;99.90
30694;DHT22;17446;48.022;-1.740;2023-02-23T01:45:23;5.30;99.90
30694;DHT22;17446;48.022;-1.740;2023-02-23T01:47:56;5.20;99.90
30694;DHT22;17446;48.022;-1.740;2023-02-23T01:50:24;5.10;99.90
30694;DHT22;17446;48.022;-1.740;2023-02-23T01:52:51;5.10;99.90
30694;DHT22;17446;48.022;-1.740;2023-02-23T01:55:19;5.10;99.90
30694;DHT22;17446;48.022;-1.740;2023-02-23T01:58:00;5.10;99.90
30694;DHT22;17446;48.022;-1.740;2023-02-23T02:00:27;5.00;99.90
30694;DHT22;17446;48.022;-1.740;2023-02-23T02:02:53;5.00;99.90
30694;DHT22;17446;48.022;-1.740;2023-02-23T02:05:19;5.00;99.90
30694;DHT22;17446;48.022;-1.740;2023-02-23T02:07:47;5.00;99.90
30694;DHT22;17446;48.022;-1.740;2023-02-23T02:10:13;5.00;99.90
30694;DHT22;17446;48.022;-1.740;2023-02-23T02:12:48;4.90;99.90
30694;DHT22;17446;48.022;-1.740;2023-02-23T02:15:19;4.90;99.90
30694;DHT22;17446;48.022;-1.740;2023-02-23T02:26:21;4.90;99.90
30694;DHT22;17446;48.022;-1.740;2023-02-23T02:42:12;4.80;99.90
30694;DHT22;17446;48.022;-1.740;2023-02-23T02:44:54;4.80;99.90
30694;DHT22;17446;48.022;-1.740;2023-02-23T02:47:27;4.80;99.90
30694;DHT22;17446;48.022;-1.740;2023-02-23T02:52:54;4.80;99.90
30694;DHT22;17446;48.022;-1.740;2023-02-23T02:55:26;4.70;99.90
30694;DHT22;17446;48.022;-1.740;2023-02-23T02:57:54;4.70;99.90
30694;DHT22;17446;48.022;-1.740;2023-02-23T03:00:40;4.70;99.90
30694;DHT22;17446;48.022;-1.740;2023-02-23T03:03:39;4.60;99.90
30694;DHT22;17446;48.022;-1.740;2023-02-23T03:06:34;4.70;99.90
30694;DHT22;17446;48.022;-1.740;2023-02-23T03:09:33;4.60;99.90
30694;DHT22;17446;48.022;-1.740;2023-02-23T03:15:46;4.60;99.90
30694;DHT22;17446;48.022;-1.740;2023-02-23T03:21:52;4.60;99.90
30694;DHT22;17446;48.022;-1.740;2023-02-23T03:27:52;4.50;99.90
30694;DHT22;17446;48.022;-1.740;2023-02-23T03:31:24;4.50;99.90
30694;DHT22;17446;48.022;-1.740;2023-02-23T03:33:56;4.40;99.90
30694;DHT22;17446;48.022;-1.740;2023-02-23T03:39:56;4.40;99.90
30694;DHT22;17446;48.022;-1.740;2023-02-23T03:42:42;4.40;99.90
30694;DHT22;17446;48.022;-1.740;2023-02-23T03:45:28;4.40;99.90
30694;DHT22;17446;48.022;-1.740;2023-02-23T03:48:15;4.30;99.90
30694;DHT22;17446;48.022;-1.740;2023-02-23T03:51:04;4.40;99.90
30694;DHT22;17446;48.022;-1.740;2023-02-23T03:54:00;4.30;99.90
30694;DHT22;17446;48.022;-1.740;2023-02-23T03:56:47;4.30;99.90
30694;DHT22;17446;48.022;-1.740;2023-02-23T03:59:38;4.40;99.90
30694;DHT22;17446;48.022;-1.740;2023-02-23T04:02:24;4.40;99.90
30694;DHT22;17446;48.022;-1.740;2023-02-23T04:05:14;4.30;99.90
30694;DHT22;17446;48.022;-1.740;2023-02-23T04:08:01;4.40;99.90
30694;DHT22;17446;48.022;-1.740;2023-02-23T04:10:50;4.40;99.90
30694;DHT22;17446;48.022;-1.740;2023-02-23T04:13:38;4.40;99.90
30694;DHT22;17446;48.022;-1.740;2023-02-23T04:16:08;4.40;99.90
30694;DHT22;17446;48.022;-1.740;2023-02-23T04:18:36;4.40;99.90
30694;DHT22;17446;48.022;-1.740;2023-02-23T04:21:03;4.40;99.90
30694;DHT22;17446;48.022;-1.740;2023-02-23T04:23:29;4.40;99.90
30694;DHT22;17446;48.022;-1.740;2023-02-23T04:25:55;4.40;99.90
30694;DHT22;17446;48.022;-1.740;2023-02-23T04:28:22;4.40;99.90
30694;DHT22;17446;48.022;-1.740;2023-02-23T04:30:48;4.50;99.90
30694;DHT22;17446;48.022;-1.740;2023-02-23T04:33:14;4.50;99.90
30694;DHT22;17446;48.022;-1.740;2023-02-23T04:35:40;4.50;99.90
30694;DHT22;17446;48.022;-1.740;2023-02-23T04:38:06;4.50;99.90
30694;DHT22;17446;48.022;-1.740;2023-02-23T04:40:32;4.50;99.90
30694;DHT22;17446;48.022;-1.740;2023-02-23T04:42:58;4.50;99.90
30694;DHT22;17446;48.022;-1.740;2023-02-23T04:45:24;4.60;99.90
30694;DHT22;17446;48.022;-1.740;2023-02-23T04:47:50;4.60;99.90
30694;DHT22;17446;48.022;-1.740;2023-02-23T04:50:16;4.60;99.90
30694;DHT22;17446;48.022;-1.740;2023-02-23T04:52:42;4.60;99.90
30694;DHT22;17446;48.022;-1.740;2023-02-23T04:55:15;4.60;99.90
30694;DHT22;17446;48.022;-1.740;2023-02-23T04:57:41;4.60;99.90
30694;DHT22;17446;48.022;-1.740;2023-02-23T05:00:07;4.60;99.90
30694;DHT22;17446;48.022;-1.740;2023-02-23T05:02:33;4.50;99.90
30694;DHT22;17446;48.022;-1.740;2023-02-23T05:04:59;4.50;99.90
30694;DHT22;17446;48.022;-1.740;2023-02-23T05:07:24;4.40;99.90
30694;DHT22;17446;48.022;-1.740;2023-02-23T05:09:50;4.40;99.90
30694;DHT22;17446;48.022;-1.740;2023-02-23T05:12:15;4.40;99.90
30694;DHT22;17446;48.022;-1.740;2023-02-23T05:14:41;4.40;99.90
30694;DHT22;17446;48.022;-1.740;2023-02-23T05:17:07;4.40;99.90
30694;DHT22;17446;48.022;-1.740;2023-02-23T05:19:33;4.40;99.90
30694;DHT22;17446;48.022;-1.740;2023-02-23T05:21:59;4.40;99.90
30694;DHT22;17446;48.022;-1.740;2023-02-23T05:24:25;4.40;99.90
30694;DHT22;17446;48.022;-1.740;2023-02-23T05:26:51;4.40;99.90
30694;DHT22;17446;48.022;-1.740;2023-02-23T05:29:16;4.40;99.90
30694;DHT22;17446;48.022;-1.740;2023-02-23T05:31:43;4.50;99.90
30694;DHT22;17446;48.022;-1.740;2023-02-23T05:34:09;4.40;99.90
30694;DHT22;17446;48.022;-1.740;2023-02-23T05:36:34;4.50;99.90
30694;DHT22;17446;48.022;-1.740;2023-02-23T05:39:01;4.50;99.90
30694;DHT22;17446;48.022;-1.740;2023-02-23T05:41:27;4.50;99.90
30694;DHT22;17446;48.022;-1.740;2023-02-23T05:43:53;4.50;99.90
30694;DHT22;17446;48.022;-1.740;2023-02-23T05:46:22;4.50;99.90
30694;DHT22;17446;48.022;-1.740;2023-02-23T05:48:49;4.50;99.90
30694;DHT22;17446;48.022;-1.740;2023-02-23T05:51:15;4.50;99.90
30694;DHT22;17446;48.022;-1.740;2023-02-23T05:53:41;4.50;99.90
30694;DHT22;17446;48.022;-1.740;2023-02-23T05:56:09;4.50;99.90
30694;DHT22;17446;48.022;-1.740;2023-02-23T05:58:36;4.50;99.90
30694;DHT22;17446;48.022;-1.740;2023-02-23T06:01:02;4.50;99.90
30694;DHT22;17446;48.022;-1.740;2023-02-23T06:03:27;4.50;99.90
30694;DHT22;17446;48.022;-1.740;2023-02-23T06:05:55;4.60;99.90
30694;DHT22;17446;48.022;-1.740;2023-02-23T06:08:22;4.60;99.90
30694;DHT22;17446;48.022;-1.740;2023-02-23T06:10:49;4.60;99.90
30694;DHT22;17446;48.022;-1.740;2023-02-23T06:13:15;4.60;99.90
30694;DHT22;17446;48.022;-1.740;2023-02-23T06:15:42;4.70;99.90
30694;DHT22;17446;48.022;-1.740;2023-02-23T06:18:08;4.70;99.90
30694;DHT22;17446;48.022;-1.740;2023-02-23T06:20:34;4.70;99.90
30694;DHT22;17446;48.022;-1.740;2023-02-23T06:23:00;4.70;99.90
30694;DHT22;17446;48.022;-1.740;2023-02-23T06:25:25;4.70;99.90
30694;DHT22;17446;48.022;-1.740;2023-02-23T06:27:51;4.70;99.90
30694;DHT22;17446;48.022;-1.740;2023-02-23T06:30:17;4.80;99.90
30694;DHT22;17446;48.022;-1.740;2023-02-23T06:32:43;4.70;99.90
30694;DHT22;17446;48.022;-1.740;2023-02-23T06:35:09;4.70;99.90
30694;DHT22;17446;48.022;-1.740;2023-02-23T06:37:35;4.70;99.90
30694;DHT22;17446;48.022;-1.740;2023-02-23T06:40:02;4.70;99.90
30694;DHT22;17446;48.022;-1.740;2023-02-23T06:42:27;4.70;99.90
30694;DHT22;17446;48.022;-1.740;2023-02-23T06:44:53;4.60;99.90
30694;DHT22;17446;48.022;-1.740;2023-02-23T06:47:19;4.60;99.90
30694;DHT22;17446;48.022;-1.740;2023-02-23T06:49:44;4.60;99.90
30694;DHT22;17446;48.022;-1.740;2023-02-23T06:52:10;4.60;99.90
30694;DHT22;17446;48.022;-1.740;2023-02-23T06:54:38;4.60;99.90
30694;DHT22;17446;48.022;-1.740;2023-02-23T06:57:05;4.70;99.90
30694;DHT22;17446;48.022;-1.740;2023-02-23T06:59:31;4.70;99.90
30694;DHT22;17446;48.022;-1.740;2023-02-23T07:01:57;4.70;99.90
30694;DHT22;17446;48.022;-1.740;2023-02-23T07:04:22;4.80;99.90
30694;DHT22;17446;48.022;-1.740;2023-02-23T07:06:48;4.80;99.90
30694;DHT22;17446;48.022;-1.740;2023-02-23T07:09:14;4.80;99.90
30694;DHT22;17446;48.022;-1.740;2023-02-23T07:11:42;4.80;99.90
30694;DHT22;17446;48.022;-1.740;2023-02-23T07:14:10;4.80;99.90
30694;DHT22;17446;48.022;-1.740;2023-02-23T07:16:36;4.80;99.90
30694;DHT22;17446;48.022;-1.740;2023-02-23T07:19:03;4.80;99.90
30694;DHT22;17446;48.022;-1.740;2023-02-23T07:21:29;4.80;99.90
30694;DHT22;17446;48.022;-1.740;2023-02-23T07:23:56;4.80;99.90
30694;DHT22;17446;48.022;-1.740;2023-02-23T07:26:22;4.80;99.90
30694;DHT22;17446;48.022;-1.740;2023-02-23T07:28:48;4.80;99.90
30694;DHT22;17446;48.022;-1.740;2023-02-23T07:31:14;4.80;99.90
30694;DHT22;17446;48.022;-1.740;2023-02-23T07:33:39;4.90;99.90
30694;DHT22;17446;48.022;-1.740;2023-02-23T07:36:05;4.90;99.90
30694;DHT22;17446;48.022;-1.740;2023-02-23T07:38:31;4.90;99.90
30694;DHT22;17446;48.022;-1.740;2023-02-23T07:40:57;4.90;99.90
30694;DHT22;17446;48.022;-1.740;2023-02-23T07:43:22;4.90;99.90
30694;DHT22;17446;48.022;-1.740;2023-02-23T07:45:49;5.00;99.90
30694;DHT22;17446;48.022;-1.740;2023-02-23T07:48:18;5.00;99.90
30694;DHT22;17446;48.022;-1.740;2023-02-23T07:50:44;5.10;99.90
30694;DHT22;17446;48.022;-1.740;2023-02-23T07:53:10;5.10;99.90
30694;DHT22;17446;48.022;-1.740;2023-02-23T07:55:36;5.10;99.90
30694;DHT22;17446;48.022;-1.740;2023-02-23T07:58:06;5.20;99.90
30694;DHT22;17446;48.022;-1.740;2023-02-23T08:00:32;5.20;99.90
30694;DHT22;17446;48.022;-1.740;2023-02-23T08:02:58;5.20;99.90
30694;DHT22;17446;48.022;-1.740;2023-02-23T08:05:26;5.20;99.90
30694;DHT22;17446;48.022;-1.740;2023-02-23T08:07:53;5.20;99.90
30694;DHT22;17446;48.022;-1.740;2023-02-23T08:10:18;5.30;99.90
30694;DHT22;17446;48.022;-1.740;2023-02-23T08:12:44;5.30;99.90
30694;DHT22;17446;48.022;-1.740;2023-02-23T08:15:10;5.30;99.90
30694;DHT22;17446;48.022;-1.740;2023-02-23T08:17:37;5.40;99.90
30694;DHT22;17446;48.022;-1.740;2023-02-23T08:20:04;5.40;99.90
30694;DHT22;17446;48.022;-1.740;2023-02-23T08:22:30;5.50;99.90
30694;DHT22;17446;48.022;-1.740;2023-02-23T08:24:56;5.50;99.90
30694;DHT22;17446;48.022;-1.740;2023-02-23T08:27:22;5.60;99.90
30694;DHT22;17446;48.022;-1.740;2023-02-23T08:29:48;5.60;99.90
30694;DHT22;17446;48.022;-1.740;2023-02-23T08:32:16;5.70;99.90
30694;DHT22;17446;48.022;-1.740;2023-02-23T08:34:42;5.70;99.90
30694;DHT22;17446;48.022;-1.740;2023-02-23T08:37:08;5.80;99.90
30694;DHT22;17446;48.022;-1.740;2023-02-23T08:39:35;5.80;99.90
30694;DHT22;17446;48.022;-1.740;2023-02-23T08:42:01;5.80;99.90
30694;DHT22;17446;48.022;-1.740;2023-02-23T08:44:27;5.90;99.90
30694;DHT22;17446;48.022;-1.740;2023-02-23T08:46:52;5.90;99.90
30694;DHT22;17446;48.022;-1.740;2023-02-23T08:49:20;5.90;99.90
30694;DHT22;17446;48.022;-1.740;2023-02-23T08:51:45;5.90;99.90
30694;DHT22;17446;48.022;-1.740;2023-02-23T08:54:11;6.00;99.90
30694;DHT22;17446;48.022;-1.740;2023-02-23T08:56:43;6.00;99.90
30694;DHT22;17446;48.022;-1.740;2023-02-23T08:59:10;6.00;99.90
30694;DHT22;17446;48.022;-1.740;2023-02-23T09:01:36;6.00;99.90
30694;DHT22;17446;48.022;-1.740;2023-02-23T09:04:03;6.10;99.90
30694;DHT22;17446;48.022;-1.740;2023-02-23T09:06:29;6.20;99.90
30694;DHT22;17446;48.022;-1.740;2023-02-23T09:08:55;6.30;99.90
30694;DHT22;17446;48.022;-1.740;2023-02-23T09:11:22;6.30;99.90
30694;DHT22;17446;48.022;-1.740;2023-02-23T09:13:47;6.40;99.90
30694;DHT22;17446;48.022;-1.740;2023-02-23T09:16:13;6.50;99.90
30694;DHT22;17446;48.022;-1.740;2023-02-23T09:18:39;6.60;99.90
30694;DHT22;17446;48.022;-1.740;2023-02-23T09:21:07;6.60;99.90
30694;DHT22;17446;48.022;-1.740;2023-02-23T09:23:34;6.70;99.90
30694;DHT22;17446;48.022;-1.740;2023-02-23T09:26:07;6.70;99.90
30694;DHT22;17446;48.022;-1.740;2023-02-23T09:28:33;6.80;99.90
30694;DHT22;17446;48.022;-1.740;2023-02-23T09:31:08;7.00;99.90
30694;DHT22;17446;48.022;-1.740;2023-02-23T09:33:34;7.00;99.90
30694;DHT22;17446;48.022;-1.740;2023-02-23T09:36:04;7.00;99.90
30694;DHT22;17446;48.022;-1.740;2023-02-23T09:38:30;7.10;99.90
30694;DHT22;17446;48.022;-1.740;2023-02-23T09:40:56;7.10;99.90
30694;DHT22;17446;48.022;-1.740;2023-02-23T09:46:13;7.20;99.90
30694;DHT22;17446;48.022;-1.740;2023-02-23T09:48:39;7.20;99.90
30694;DHT22;17446;48.022;-1.740;2023-02-23T09:51:06;7.20;99.90
30694;DHT22;17446;48.022;-1.740;2023-02-23T09:53:41;7.20;99.90
30694;DHT22;17446;48.022;-1.740;2023-02-23T09:56:17;7.30;99.90
30694;DHT22;17446;48.022;-1.740;2023-02-23T09:58:45;7.30;99.90
30694;DHT22;17446;48.022;-1.740;2023-02-23T10:01:31;7.20;99.90
30694;DHT22;17446;48.022;-1.740;2023-02-23T10:04:29;7.10;99.90
30694;DHT22;17446;48.022;-1.740;2023-02-23T10:07:06;7.10;99.90
30694;DHT22;17446;48.022;-1.740;2023-02-23T10:12:49;7.00;99.90
30694;DHT22;17446;48.022;-1.740;2023-02-23T10:15:35;7.10;99.90
30694;DHT22;17446;48.022;-1.740;2023-02-23T10:23:36;7.40;99.90
30694;DHT22;17446;48.022;-1.740;2023-02-23T10:26:04;7.40;99.90
30694;DHT22;17446;48.022;-1.740;2023-02-23T10:28:35;7.40;99.90
30694;DHT22;17446;48.022;-1.740;2023-02-23T10:33:47;7.30;99.90
30694;DHT22;17446;48.022;-1.740;2023-02-23T10:36:16;7.30;99.90
30694;DHT22;17446;48.022;-1.740;2023-02-23T10:38:44;7.30;99.90
30694;DHT22;17446;48.022;-1.740;2023-02-23T10:41:10;7.40;99.90
30694;DHT22;17446;48.022;-1.740;2023-02-23T10:43:36;7.50;99.90
30694;DHT22;17446;48.022;-1.740;2023-02-23T10:46:03;7.50;99.90
30694;DHT22;17446;48.022;-1.740;2023-02-23T10:48:35;7.60;99.90
30694;DHT22;17446;48.022;-1.740;2023-02-23T10:51:06;7.70;99.90
30694;DHT22;17446;48.022;-1.740;2023-02-23T10:53:38;7.70;99.90
30694;DHT22;17446;48.022;-1.740;2023-02-23T10:58:30;7.80;99.90
30694;DHT22;17446;48.022;-1.740;2023-02-23T11:01:04;7.90;99.90
30694;DHT22;17446;48.022;-1.740;2023-02-23T11:03:39;7.90;99.90
30694;DHT22;17446;48.022;-1.740;2023-02-23T11:06:29;7.90;99.90
30694;DHT22;17446;48.022;-1.740;2023-02-23T11:08:55;8.00;99.90
30694;DHT22;17446;48.022;-1.740;2023-02-23T11:11:24;8.00;99.90
30694;DHT22;17446;48.022;-1.740;2023-02-23T11:13:54;8.10;99.90
30694;DHT22;17446;48.022;-1.740;2023-02-23T11:16:22;8.10;99.90
30694;DHT22;17446;48.022;-1.740;2023-02-23T11:18:55;8.10;99.90
30694;DHT22;17446;48.022;-1.740;2023-02-23T11:24:03;8.20;99.90
30694;DHT22;17446;48.022;-1.740;2023-02-23T11:26:41;8.20;99.90
30694;DHT22;17446;48.022;-1.740;2023-02-23T11:29:20;8.20;99.90
30694;DHT22;17446;48.022;-1.740;2023-02-23T11:31:50;8.10;99.90
30694;DHT22;17446;48.022;-1.740;2023-02-23T11:34:22;8.10;99.90
30694;DHT22;17446;48.022;-1.740;2023-02-23T11:39:51;8.10;99.90
30694;DHT22;17446;48.022;-1.740;2023-02-23T11:42:20;8.10;99.90
30694;DHT22;17446;48.022;-1.740;2023-02-23T11:44:50;8.10;99.90
30694;DHT22;17446;48.022;-1.740;2023-02-23T11:47:20;8.10;99.90
30694;DHT22;17446;48.022;-1.740;2023-02-23T11:49:47;8.10;99.90
30694;DHT22;17446;48.022;-1.740;2023-02-23T11:52:17;8.10;99.90
30694;DHT22;17446;48.022;-1.740;2023-02-23T11:54:51;8.10;99.90
30694;DHT22;17446;48.022;-1.740;2023-02-23T11:57:22;8.20;99.90
30694;DHT22;17446;48.022;-1.740;2023-02-23T11:59:49;8.20;99.90
30694;DHT22;17446;48.022;-1.740;2023-02-23T12:02:18;8.30;99.90
30694;DHT22;17446;48.022;-1.740;2023-02-23T12:04:46;8.50;99.90
30694;DHT22;17446;48.022;-1.740;2023-02-23T12:10:26;8.70;99.90
30694;DHT22;17446;48.022;-1.740;2023-02-23T12:13:02;8.90;99.90
30694;DHT22;17446;48.022;-1.740;2023-02-23T12:15:42;9.00;99.90
30694;DHT22;17446;48.022;-1.740;2023-02-23T12:26:53;9.00;99.90
30694;DHT22;17446;48.022;-1.740;2023-02-23T12:29:43;8.90;99.90
30694;DHT22;17446;48.022;-1.740;2023-02-23T12:32:23;8.80;99.90
30694;DHT22;17446;48.022;-1.740;2023-02-23T12:35:24;8.80;99.90
30694;DHT22;17446;48.022;-1.740;2023-02-23T12:40:27;8.80;99.90
30694;DHT22;17446;48.022;-1.740;2023-02-23T12:47:58;8.80;99.90
30694;DHT22;17446;48.022;-1.740;2023-02-23T12:58:40;8.80;99.90
30694;DHT22;17446;48.022;-1.740;2023-02-23T13:01:15;8.80;99.90
30694;DHT22;17446;48.022;-1.740;2023-02-23T13:11:54;8.90;99.90
30694;DHT22;17446;48.022;-1.740;2023-02-23T13:17:12;9.00;99.90
30694;DHT22;17446;48.022;-1.740;2023-02-23T13:19:52;9.10;99.90
30694;DHT22;17446;48.022;-1.740;2023-02-23T13:24:54;9.10;99.90
30694;DHT22;17446;48.022;-1.740;2023-02-23T13:27:29;9.10;99.90
30694;DHT22;17446;48.022;-1.740;2023-02-23T13:29:57;9.10;99.90
30694;DHT22;17446;48.022;-1.740;2023-02-23T13:32:32;9.20;99.90
30694;DHT22;17446;48.022;-1.740;2023-02-23T13:34:59;9.20;99.90
30694;DHT22;17446;48.022;-1.740;2023-02-23T13:40:30;9.20;99.90
30694;DHT22;17446;48.022;-1.740;2023-02-23T13:43:20;9.20;99.90
30694;DHT22;17446;48.022;-1.740;2023-02-23T13:46:17;9.20;99.90
30694;DHT22;17446;48.022;-1.740;2023-02-23T13:48:46;9.20;99.90
30694;DHT22;17446;48.022;-1.740;2023-02-23T13:51:23;9.20;99.90
30694;DHT22;17446;48.022;-1.740;2023-02-23T13:54:00;9.30;99.90
30694;DHT22;17446;48.022;-1.740;2023-02-23T13:56:28;9.30;99.90
30694;DHT22;17446;48.022;-1.740;2023-02-23T13:59:05;9.30;99.90
30694;DHT22;17446;48.022;-1.740;2023-02-23T14:01:42;9.40;99.90
30694;DHT22;17446;48.022;-1.740;2023-02-23T14:04:35;9.40;99.90
30694;DHT22;17446;48.022;-1.740;2023-02-23T14:07:15;9.30;99.90
30694;DHT22;17446;48.022;-1.740;2023-02-23T14:09:49;9.20;99.90
30694;DHT22;17446;48.022;-1.740;2023-02-23T14:12:24;9.20;99.90
30694;DHT22;17446;48.022;-1.740;2023-02-23T14:14:51;9.20;99.90
30694;DHT22;17446;48.022;-1.740;2023-02-23T14:22:21;9.00;99.90
30694;DHT22;17446;48.022;-1.740;2023-02-23T14:27:57;8.90;99.90
30694;DHT22;17446;48.022;-1.740;2023-02-23T14:30:27;8.90;99.90
30694;DHT22;17446;48.022;-1.740;2023-02-23T14:32:53;8.80;99.90
30694;DHT22;17446;48.022;-1.740;2023-02-23T14:38:15;8.70;99.90
30694;DHT22;17446;48.022;-1.740;2023-02-23T14:40:44;8.70;99.90
30694;DHT22;17446;48.022;-1.740;2023-02-23T14:45:59;8.60;99.90
30694;DHT22;17446;48.022;-1.740;2023-02-23T14:48:25;8.60;99.90
30694;DHT22;17446;48.022;-1.740;2023-02-23T14:50:50;8.60;99.90
30694;DHT22;17446;48.022;-1.740;2023-02-23T14:53:21;8.60;99.90
30694;DHT22;17446;48.022;-1.740;2023-02-23T14:55:48;8.60;99.90
30694;DHT22;17446;48.022;-1.740;2023-02-23T14:58:22;8.60;99.90
30694;DHT22;17446;48.022;-1.740;2023-02-23T15:00:50;8.60;99.90
30694;DHT22;17446;48.022;-1.740;2023-02-23T15:03:16;8.60;99.90
30694;DHT22;17446;48.022;-1.740;2023-02-23T15:06:03;8.60;99.90
30694;DHT22;17446;48.022;-1.740;2023-02-23T15:08:29;8.50;99.90
30694;DHT22;17446;48.022;-1.740;2023-02-23T15:10:59;8.50;99.90
30694;DHT22;17446;48.022;-1.740;2023-02-23T15:15:56;8.40;99.90
30694;DHT22;17446;48.022;-1.740;2023-02-23T15:18:42;8.30;99.90
30694;DHT22;17446;48.022;-1.740;2023-02-23T15:21:20;8.30;99.90
30694;DHT22;17446;48.022;-1.740;2023-02-23T15:23:52;8.20;99.90
30694;DHT22;17446;48.022;-1.740;2023-02-23T15:28:51;8.10;99.90
30694;DHT22;17446;48.022;-1.740;2023-02-23T15:31:16;8.10;99.90
30694;DHT22;17446;48.022;-1.740;2023-02-23T15:33:43;8.10;99.90
30694;DHT22;17446;48.022;-1.740;2023-02-23T15:36:18;8.00;99.90
30694;DHT22;17446;48.022;-1.740;2023-02-23T15:38:52;8.00;99.90
30694;DHT22;17446;48.022;-1.740;2023-02-23T15:41:35;8.00;99.90
30694;DHT22;17446;48.022;-1.740;2023-02-23T15:44:24;8.00;99.90
30694;DHT22;17446;48.022;-1.740;2023-02-23T15:46:54;8.00;99.90
30694;DHT22;17446;48.022;-1.740;2023-02-23T15:49:24;8.00;99.90
30694;DHT22;17446;48.022;-1.740;2023-02-23T15:51:56;8.00;99.90
30694;DHT22;17446;48.022;-1.740;2023-02-23T15:54:31;8.00;99.90
30694;DHT22;17446;48.022;-1.740;2023-02-23T15:57:02;8.00;99.90
30694;DHT22;17446;48.022;-1.740;2023-02-23T15:59:30;8.00;99.90
30694;DHT22;17446;48.022;-1.740;2023-02-23T16:02:00;8.00;99.90
30694;DHT22;17446;48.022;-1.740;2023-02-23T16:04:37;7.90;99.90
30694;DHT22;17446;48.022;-1.740;2023-02-23T16:09:54;8.00;99.90
30694;DHT22;17446;48.022;-1.740;2023-02-23T16:12:23;8.00;99.90
30694;DHT22;17446;48.022;-1.740;2023-02-23T16:14:52;7.90;99.90
30694;DHT22;17446;48.022;-1.740;2023-02-23T16:17:29;8.00;99.90
30694;DHT22;17446;48.022;-1.740;2023-02-23T16:20:15;7.90;99.90
30694;DHT22;17446;48.022;-1.740;2023-02-23T16:22:42;8.00;99.90
30694;DHT22;17446;48.022;-1.740;2023-02-23T16:25:15;7.90;99.90
30694;DHT22;17446;48.022;-1.740;2023-02-23T16:27:43;7.90;99.90
30694;DHT22;17446;48.022;-1.740;2023-02-23T16:32:42;7.90;99.90
30694;DHT22;17446;48.022;-1.740;2023-02-23T16:35:17;7.80;99.90
30694;DHT22;17446;48.022;-1.740;2023-02-23T16:37:56;7.90;99.90
30694;DHT22;17446;48.022;-1.740;2023-02-23T16:40:21;7.90;99.90
30694;DHT22;17446;48.022;-1.740;2023-02-23T16:42:47;7.90;99.90
30694;DHT22;17446;48.022;-1.740;2023-02-23T16:45:14;7.90;99.90
30694;DHT22;17446;48.022;-1.740;2023-02-23T16:47:45;8.00;99.90
30694;DHT22;17446;48.022;-1.740;2023-02-23T16:50:22;8.00;99.90
30694;DHT22;17446;48.022;-1.740;2023-02-23T16:52:50;8.10;99.90
30694;DHT22;17446;48.022;-1.740;2023-02-23T16:55:22;8.10;99.90
30694;DHT22;17446;48.022;-1.740;2023-02-23T16:57:55;8.10;99.90
30694;DHT22;17446;48.022;-1.740;2023-02-23T17:00:28;8.20;99.90
30694;DHT22;17446;48.022;-1.740;2023-02-23T17:02:55;8.20;99.90
30694;DHT22;17446;48.022;-1.740;2023-02-23T17:05:22;8.20;99.90
30694;DHT22;17446;48.022;-1.740;2023-02-23T17:07:49;8.20;99.90
30694;DHT22;17446;48.022;-1.740;2023-02-23T17:10:24;8.20;99.90
30694;DHT22;17446;48.022;-1.740;2023-02-23T17:12:55;8.20;99.90
30694;DHT22;17446;48.022;-1.740;2023-02-23T17:15:22;8.20;99.90
30694;DHT22;17446;48.022;-1.740;2023-02-23T17:17:48;8.20;99.90
30694;DHT22;17446;48.022;-1.740;2023-02-23T17:20:13;8.20;99.90
30694;DHT22;17446;48.022;-1.740;2023-02-23T17:22:48;8.20;99.90
30694;DHT22;17446;48.022;-1.740;2023-02-23T17:25:15;8.20;99.90
30694;DHT22;17446;48.022;-1.740;2023-02-23T17:27:40;8.20;99.90
30694;DHT22;17446;48.022;-1.740;2023-02-23T17:30:07;8.20;99.90
30694;DHT22;17446;48.022;-1.740;2023-02-23T17:32:33;8.30;99.90
30694;DHT22;17446;48.022;-1.740;2023-02-23T17:34:59;8.20;99.90
30694;DHT22;17446;48.022;-1.740;2023-02-23T17:37:26;8.20;99.90
30694;DHT22;17446;48.022;-1.740;2023-02-23T17:39:53;8.30;99.90
30694;DHT22;17446;48.022;-1.740;2023-02-23T17:42:18;8.30;99.90
30694;DHT22;17446;48.022;-1.740;2023-02-23T17:44:44;8.30;99.90
30694;DHT22;17446;48.022;-1.740;2023-02-23T17:47:10;8.20;99.90
30694;DHT22;17446;48.022;-1.740;2023-02-23T17:49:37;8.20;99.90
30694;DHT22;17446;48.022;-1.740;2023-02-23T17:52:02;8.20;99.90
30694;DHT22;17446;48.022;-1.740;2023-02-23T17:54:28;8.10;99.90
30694;DHT22;17446;48.022;-1.740;2023-02-23T17:56:55;8.10;99.90
30694;DHT22;17446;48.022;-1.740;2023-02-23T17:59:20;8.10;99.90
30694;DHT22;17446;48.022;-1.740;2023-02-23T18:01:46;8.00;99.90
30694;DHT22;17446;48.022;-1.740;2023-02-23T18:04:15;8.00;99.90